createdAt,value
2023-05-16T00:00:54.558Z,24.05
2023-05-16T00:05:56.845Z,24.04
2023-05-16T00:10:58.846Z,24.05
2023-05-16T00:16:02.823Z,24.05
2023-05-16T00:21:05.198Z,24.08
2023-05-16T00:26:07.127Z,24.05
2023-05-16T00:31:08.879Z,24.04
2023-05-16T00:36:10.845Z,24.04
2023-05-16T00:41:12.754Z,24.06
2023-05-16T00:46:14.738Z,24.04
2023-05-16T00:51:17.954Z,24.02
2023-05-16T00:56:21.762Z,24.04
2023-05-16T01:01:25.288Z,24.03
2023-05-16T01:06:27.238Z,24.01
2023-05-16T01:11:37.316Z,23.99
2023-05-16T01:17:05.514Z,23.98
2023-05-16T01:22:16.644Z,24.01
2023-05-16T01:27:19.173Z,24.00
2023-05-16T01:32:23.086Z,24.00
2023-05-16T01:37:31.949Z,24.04
2023-05-16T01:42:37.417Z,24.00
2023-05-16T01:47:45.291Z,23.98
2023-05-16T01:52:56.260Z,23.99
2023-05-16T01:58:00.032Z,23.96
2023-05-16T02:03:01.920Z,24.02
2023-05-16T02:08:04.664Z,24.02
2023-05-16T02:13:06.633Z,24.01
2023-05-16T02:18:09.660Z,24.01
2023-05-16T02:23:11.721Z,23.97
2023-05-16T02:28:13.559Z,23.97
2023-05-16T02:33:15.375Z,23.96
2023-05-16T02:38:17.801Z,23.96
2023-05-16T02:43:19.604Z,23.94
2023-05-16T02:48:21.421Z,23.96
2023-05-16T02:53:23.178Z,23.98
2023-05-16T02:58:24.978Z,23.96
2023-05-16T03:03:27.034Z,23.91
2023-05-16T03:08:28.887Z,23.94
2023-05-16T03:13:31.443Z,23.96
2023-05-16T03:18:33.510Z,23.96
2023-05-16T03:23:35.388Z,23.95
2023-05-16T03:28:37.610Z,23.98
2023-05-16T03:33:39.494Z,23.97
2023-05-16T03:38:41.370Z,23.92
2023-05-16T03:43:43.189Z,23.94
2023-05-16T03:48:45.205Z,23.91
2023-05-16T03:53:46.963Z,23.91
2023-05-16T03:58:48.948Z,23.91
2023-05-16T04:03:51.263Z,23.89
2023-05-16T04:08:53.130Z,23.90
2023-05-16T04:13:55.145Z,23.89
2023-05-16T04:18:57.308Z,23.90
2023-05-16T04:23:59.392Z,23.89
2023-05-16T04:29:01.491Z,23.89
2023-05-16T04:34:03.824Z,23.86
2023-05-16T04:39:06.526Z,23.87
2023-05-16T04:44:09.045Z,23.87
2023-05-16T04:49:11.588Z,23.86
2023-05-16T04:54:13.502Z,23.86
2023-05-16T04:59:15.448Z,23.89
2023-05-16T05:04:17.980Z,23.85
2023-05-16T05:09:19.884Z,23.86
2023-05-16T05:14:22.015Z,23.84
2023-05-16T05:19:23.913Z,23.84
2023-05-16T05:24:25.911Z,23.84
2023-05-16T05:29:27.853Z,23.82
2023-05-16T05:34:29.670Z,23.85
2023-05-16T05:39:31.499Z,23.84
2023-05-16T05:44:33.863Z,23.81
2023-05-16T05:49:36.216Z,23.82
2023-05-16T05:54:38.096Z,23.85
2023-05-16T05:59:40.161Z,23.85
2023-05-16T06:04:43.096Z,23.69
2023-05-16T06:09:45.066Z,23.56
2023-05-16T06:14:47.275Z,23.43
2023-05-16T06:19:49.149Z,23.52
2023-05-16T06:24:51.083Z,23.52
2023-05-16T06:29:52.967Z,23.48
2023-05-16T06:34:54.821Z,23.75
2023-05-16T06:39:56.688Z,24.01
2023-05-16T06:44:58.669Z,23.98
2023-05-16T06:50:00.580Z,23.99
2023-05-16T06:55:02.538Z,24.04
2023-05-16T07:00:05.086Z,24.18
2023-05-16T07:05:07.462Z,24.37
2023-05-16T07:10:09.710Z,24.34
2023-05-16T07:15:11.807Z,24.40
2023-05-16T07:20:15.056Z,24.57
2023-05-16T07:25:17.556Z,24.52
2023-05-16T07:30:19.580Z,24.37
2023-05-16T07:35:21.556Z,24.37
2023-05-16T07:40:28.543Z,24.29
2023-05-16T07:45:30.649Z,24.18
2023-05-16T07:50:32.706Z,24.15
2023-05-16T07:55:35.733Z,24.04
2023-05-16T08:00:37.658Z,23.90
2023-05-16T08:05:40.224Z,24.14
2023-05-16T08:10:42.232Z,24.33
2023-05-16T08:15:44.237Z,24.43
2023-05-16T08:20:46.292Z,24.39
2023-05-16T08:25:48.246Z,24.49
2023-05-16T08:30:50.357Z,24.26
2023-05-16T08:35:55.435Z,24.36
2023-05-16T08:40:57.435Z,24.38
2023-05-16T08:45:59.825Z,24.24
2023-05-16T08:51:03.612Z,24.33
2023-05-16T08:56:07.761Z,24.31
2023-05-16T09:01:10.369Z,24.26
2023-05-16T09:06:12.280Z,24.23
2023-05-16T09:11:14.248Z,24.29
2023-05-16T09:16:19.932Z,24.13
2023-05-16T09:21:21.908Z,24.28
2023-05-16T09:26:23.928Z,24.31
2023-05-16T09:31:28.059Z,24.26
2023-05-16T09:36:32.246Z,24.30
2023-05-16T09:41:35.783Z,24.23
2023-05-16T09:46:38.922Z,24.39
2023-05-16T09:51:41.649Z,24.33
2023-05-16T09:56:50.979Z,24.26
2023-05-16T10:01:53.600Z,24.27
2023-05-16T10:06:59.128Z,24.23
2023-05-16T10:12:08.629Z,24.24
2023-05-16T10:17:14.619Z,24.21
2023-05-16T10:22:18.172Z,24.19
2023-05-16T10:27:21.401Z,24.20
2023-05-16T10:32:25.866Z,24.14
2023-05-16T10:37:28.641Z,24.24
2023-05-16T10:42:32.688Z,24.17
2023-05-16T10:47:34.648Z,24.20
2023-05-16T10:52:36.639Z,24.17
2023-05-16T10:57:38.852Z,24.20
2023-05-16T11:02:42.421Z,24.21
2023-05-16T11:07:45.009Z,24.21
2023-05-16T11:12:50.216Z,24.18
2023-05-16T11:18:05.352Z,24.15
2023-05-16T11:23:22.435Z,24.15
2023-05-16T11:28:27.010Z,24.12
2023-05-16T11:33:34.559Z,24.10
2023-05-16T11:38:37.381Z,24.10
2023-05-16T11:43:43.808Z,24.11
2023-05-16T11:48:47.688Z,24.11
2023-05-16T11:53:50.391Z,24.07
2023-05-16T11:58:52.877Z,24.08
2023-05-16T12:03:59.707Z,24.08
2023-05-16T12:09:10.177Z,24.07
2023-05-16T12:14:13.566Z,24.04
2023-05-16T12:19:16.098Z,24.03
2023-05-16T12:24:18.063Z,24.03
2023-05-16T12:29:22.006Z,24.04
2023-05-16T12:34:24.577Z,24.03
2023-05-16T12:39:26.554Z,24.07
2023-05-16T12:44:30.577Z,24.02
2023-05-16T12:49:33.754Z,24.03
2023-05-16T12:54:35.721Z,24.00
2023-05-16T12:59:37.658Z,24.03
2023-05-16T13:04:39.628Z,24.01
2023-05-16T13:09:42.083Z,24.02
2023-05-16T13:14:45.424Z,23.98
2023-05-16T13:19:48.948Z,24.03
2023-05-16T13:24:51.006Z,24.08
2023-05-16T13:29:52.941Z,24.08
2023-05-16T13:34:55.422Z,24.06
2023-05-16T13:39:57.527Z,24.06
2023-05-16T13:44:59.467Z,24.03
2023-05-16T13:50:08.114Z,24.01
2023-05-16T13:55:10.404Z,24.01
2023-05-16T14:05:17.753Z,23.94
2023-05-16T14:10:19.702Z,23.92
2023-05-16T14:15:21.796Z,23.93
2023-05-16T14:20:23.879Z,23.91
2023-05-16T14:25:26.083Z,23.87
2023-05-16T14:30:28.387Z,23.90
2023-05-16T14:35:31.423Z,23.86
2023-05-16T14:40:34.537Z,23.87
2023-05-16T14:45:40.291Z,23.87
2023-05-16T14:50:42.352Z,23.89
2023-05-16T14:55:45.015Z,23.97
2023-05-16T15:00:47.017Z,23.96
2023-05-16T15:05:48.986Z,23.94
2023-05-16T15:10:51.160Z,23.90
2023-05-16T15:15:53.460Z,23.84
2023-05-16T15:20:55.495Z,23.55
2023-05-16T15:25:57.542Z,23.56
2023-05-16T15:30:59.469Z,23.57
2023-05-16T15:36:01.942Z,23.73
2023-05-16T15:46:15.809Z,23.81
2023-05-16T15:51:17.920Z,23.81
2023-05-16T15:56:19.869Z,23.86
2023-05-16T16:01:21.948Z,23.86
2023-05-16T16:06:23.869Z,23.86
2023-05-16T16:11:27.194Z,23.81
2023-05-16T16:16:29.145Z,23.82
2023-05-16T16:21:31.572Z,23.74
2023-05-16T16:26:33.549Z,23.71
2023-05-16T16:31:35.791Z,23.68
2023-05-16T16:36:37.915Z,23.70
2023-05-16T16:41:39.906Z,23.67
2023-05-16T16:46:41.913Z,23.72
2023-05-16T16:51:43.818Z,23.72
2023-05-16T16:56:47.005Z,23.72
2023-05-16T17:01:49.647Z,23.73
2023-05-16T17:06:51.742Z,23.64
2023-05-16T17:11:53.725Z,23.57
2023-05-16T17:16:55.644Z,23.57
2023-05-16T17:21:57.453Z,23.48
2023-05-16T17:26:59.359Z,23.53
2023-05-16T17:32:01.421Z,23.61
2023-05-16T17:37:05.509Z,23.61
2023-05-16T17:42:09.481Z,23.64
2023-05-16T17:47:11.742Z,23.66
2023-05-16T17:52:13.788Z,23.66
2023-05-16T17:57:15.924Z,23.64
2023-05-16T18:02:28.618Z,23.63
2023-05-16T18:07:30.520Z,23.66
2023-05-16T18:12:32.507Z,23.68
2023-05-16T18:17:34.897Z,23.68
2023-05-16T18:22:37.567Z,23.72
2023-05-16T18:27:39.696Z,23.79
2023-05-16T18:32:41.930Z,23.80
2023-05-16T18:37:44.598Z,23.82
2023-05-16T18:42:46.577Z,23.79
2023-05-16T18:47:48.702Z,23.80
2023-05-16T18:52:50.731Z,23.80
2023-05-16T18:57:52.765Z,23.79
2023-05-16T19:02:54.623Z,23.79
2023-05-16T19:07:56.884Z,23.75
2023-05-16T19:13:03.322Z,23.78
2023-05-16T19:18:06.655Z,23.79
2023-05-16T19:23:08.742Z,23.78
2023-05-16T19:28:11.003Z,23.72
2023-05-16T19:33:13.053Z,23.76
2023-05-16T19:38:14.989Z,23.72
2023-05-16T19:43:17.070Z,23.78
2023-05-16T19:48:19.064Z,23.75
2023-05-16T19:53:22.518Z,23.74
2023-05-16T19:58:24.444Z,23.58
2023-05-16T20:03:26.830Z,23.69
2023-05-16T20:08:29.064Z,23.73
2023-05-16T20:13:32.393Z,23.71
2023-05-16T20:18:34.501Z,23.73
2023-05-16T20:23:38.408Z,23.74
2023-05-16T20:28:40.678Z,23.69
2023-05-16T20:33:42.747Z,23.72
2023-05-16T20:38:44.772Z,23.69
2023-05-16T20:43:47.145Z,23.50
2023-05-16T20:48:49.044Z,23.38
2023-05-16T20:53:51.109Z,23.29
2023-05-16T20:58:52.971Z,23.25
2023-05-16T21:03:55.004Z,23.23
2023-05-16T21:08:57.087Z,23.22
2023-05-16T21:13:59.709Z,23.18
2023-05-16T21:19:04.649Z,23.12
2023-05-16T21:24:06.973Z,23.29
2023-05-16T21:29:08.929Z,23.40
2023-05-16T21:34:11.604Z,23.44
2023-05-16T21:39:13.592Z,23.47
2023-05-16T21:44:17.520Z,23.48
2023-05-16T21:49:19.433Z,23.47
2023-05-16T21:54:21.320Z,23.53
2023-05-16T21:59:23.673Z,23.53
2023-05-16T22:04:25.643Z,23.51
2023-05-16T22:09:27.890Z,23.53
2023-05-16T22:14:29.974Z,23.54
2023-05-16T22:19:32.001Z,23.53
2023-05-16T22:24:33.908Z,23.54
2023-05-16T22:29:38.556Z,23.56
2023-05-16T22:34:40.731Z,23.58
2023-05-16T22:39:42.547Z,23.62
2023-05-16T22:44:44.543Z,23.55
2023-05-16T22:49:46.391Z,23.55
2023-05-16T22:54:48.516Z,23.58
2023-05-16T22:59:50.434Z,23.53
2023-05-16T23:04:52.690Z,23.55
2023-05-16T23:09:54.747Z,23.52
2023-05-16T23:14:58.369Z,23.53
2023-05-16T23:20:00.466Z,23.57
2023-05-16T23:25:02.565Z,23.58
2023-05-16T23:30:04.939Z,23.55
2023-05-16T23:35:07.301Z,23.54
2023-05-16T23:40:09.818Z,23.53
2023-05-16T23:45:12.073Z,23.52
2023-05-16T23:50:15.736Z,23.51
2023-05-16T23:55:17.737Z,23.53
